Port Meadville Airport

About
Name: Port Meadville Airport
Identifier:  MEJ/KGKJ
Local Time:  25. Aug 05:33 EDT
Location
Flights per Day
0 flights
Distance: 479km (297mi)
Punctuality
50% (0 flights per day delayed)
Delay Average: 18 minutes
Current Weather
 12 C (Humidity: 87%)
  4kt (7km/h / 4mph) from 90°
  16km (10 mi.)
 
 METAR KGKJ 250853Z AUTO 09004KT 10SM CLR 12/10 A3025 RMK AO2 SLP241 T01220100 55006 TSNO

Current Flights

Departures
Number Departure To Airline
Arrivals
Number Arrival From Airline

Current Delays

Departures
N/A
Arrivals
N/A

Destinations

Top Destinations
Airport Flights
per week
Seats
per week
  Chicago (PWK) 0 - 0 0
  Greensboro (GSO) 0 - 0 0
  Columbus (CMH) 0 - 0 0
  Roanoke (ROA) 0 - 0 0
  Pellston (PLN) 0 - 0 0
  Georgetown (GED) 0 - 0 0
  Erie (ERI) 0 - 0 0
  Lexington (LEX) 0 - 0 0

Airlines & Planes

Top Airlines
Airline Flights
per Day
Seats
per Day
  Novair 0 -
Nordwind Airlines 0 -
Gama Aviation 0 -
Jet Charter Inc ( Franklin Lakes Nj ) 0 -
Top Plane Types
Model Flights Seats
Beech B200 Super King Air 0.1/day - 0
Learjet 45 0.1/day - 0
Beech B300 Super King Air 350 0.1/day - 0
Beech 58 0.1/day - 0
Pilatus PC-12 0.1/day - 0
Piper PA28-181 0.0/day - 0